Shell Knob, Missouri
Current Conditions -  °F | °C
As of 10:55 AM on Sunday 21 Dec 2014 (Local Time) from KFWB Reporting Station
Haze Haze  
Wind Chill: 36°   Ceiling: 3200
Heat Index: 41°   Visibility: 5mi
Dew Point: 39°   Wind: 8mph
Humidity: 93%   Direction: 130°SE
Pressure: 30.08"   Gusts: NA
Location:  36.63°N, 93.63°W
Report Text: KFWB 211655Z AUTO 13007KT 5SM BR SCT011 SCT024 OVC032 05/04 A3008 RMK AO2
Loading
Personal Weather Stations






























Interactive Weather Map New forecast layout! Learn more

10-Day Weather Forecast

Advertisements
Track Severe Weather on mobile